createdAt,value
2023-05-19T00:00:20.760Z,9.35
2023-05-19T00:01:20.784Z,9.38
2023-05-19T00:02:20.817Z,9.40
2023-05-19T00:03:20.794Z,9.42
2023-05-19T00:04:20.727Z,9.43
2023-05-19T00:05:20.797Z,9.42
2023-05-19T00:06:20.724Z,9.40
2023-05-19T00:07:20.787Z,9.39
2023-05-19T00:08:20.701Z,9.39
2023-05-19T00:09:20.680Z,9.38
2023-05-19T00:10:20.639Z,9.35
2023-05-19T00:11:20.749Z,9.32
2023-05-19T00:12:20.639Z,9.32
2023-05-19T00:13:20.672Z,9.31
2023-05-19T00:14:20.604Z,9.28
2023-05-19T00:15:20.593Z,9.27
2023-05-19T00:16:20.674Z,9.28
2023-05-19T00:17:20.637Z,9.28
2023-05-19T00:18:20.612Z,9.28
2023-05-19T00:19:20.677Z,9.27
2023-05-19T00:20:20.549Z,9.25
2023-05-19T00:21:20.513Z,9.24
2023-05-19T00:22:20.495Z,9.23
2023-05-19T00:23:20.507Z,9.21
2023-05-19T00:24:20.488Z,9.18
2023-05-19T00:25:20.465Z,9.16
2023-05-19T00:26:20.459Z,9.13
2023-05-19T00:27:20.445Z,9.13
2023-05-19T00:28:20.474Z,9.13
2023-05-19T00:29:20.441Z,9.12
2023-05-19T00:30:20.475Z,9.10
2023-05-19T00:31:20.459Z,9.10
2023-05-19T00:32:27.006Z,9.09
2023-05-19T00:33:20.411Z,9.06
2023-05-19T00:34:20.371Z,9.09
2023-05-19T00:35:20.359Z,9.10
2023-05-19T00:36:20.405Z,9.15
2023-05-19T00:37:20.333Z,9.13
2023-05-19T00:38:20.388Z,9.15
2023-05-19T00:39:20.344Z,9.16
2023-05-19T00:40:20.305Z,9.18
2023-05-19T00:41:20.326Z,9.16
2023-05-19T00:42:20.332Z,9.16
2023-05-19T00:43:20.326Z,9.13
2023-05-19T00:44:20.258Z,9.12
2023-05-19T00:45:20.334Z,9.06
2023-05-19T00:46:20.293Z,9.06
2023-05-19T00:47:20.249Z,9.04
2023-05-19T00:48:20.254Z,9.05
2023-05-19T00:49:20.203Z,9.05
2023-05-19T00:50:20.208Z,9.04
2023-05-19T00:51:20.199Z,9.02
2023-05-19T00:52:20.198Z,9.02
2023-05-19T00:53:20.189Z,8.99
2023-05-19T00:54:20.154Z,8.96
2023-05-19T00:55:20.143Z,8.94
2023-05-19T00:56:20.149Z,8.93
2023-05-19T00:57:20.110Z,8.91
2023-05-19T00:58:20.136Z,8.90
2023-05-19T00:59:20.086Z,8.88
2023-05-19T01:00:20.079Z,8.84
2023-05-19T01:01:20.151Z,8.84
2023-05-19T01:02:20.130Z,8.81
2023-05-19T01:03:20.149Z,8.79
2023-05-19T01:04:20.073Z,8.78
2023-05-19T01:05:20.069Z,8.76
2023-05-19T01:06:20.025Z,8.75
2023-05-19T01:07:20.033Z,8.72
2023-05-19T01:08:20.063Z,8.73
2023-05-19T01:09:19.993Z,8.73
2023-05-19T01:10:19.978Z,8.73
2023-05-19T01:11:19.992Z,8.71
2023-05-19T01:12:19.980Z,8.68
2023-05-19T01:13:19.969Z,8.66
2023-05-19T01:14:19.970Z,8.65
2023-05-19T01:15:19.932Z,8.66
2023-05-19T01:16:19.944Z,8.65
2023-05-19T01:17:19.906Z,8.63
2023-05-19T01:18:19.920Z,8.65
2023-05-19T01:19:20.035Z,8.62
2023-05-19T01:20:19.882Z,8.62
2023-05-19T01:21:19.879Z,8.62
2023-05-19T01:22:19.854Z,8.62
2023-05-19T01:23:19.854Z,8.62
2023-05-19T01:24:19.821Z,8.63
2023-05-19T01:25:19.832Z,8.65
2023-05-19T01:26:19.796Z,8.68
2023-05-19T01:27:19.805Z,8.68
2023-05-19T01:28:19.800Z,8.69
2023-05-19T01:29:19.788Z,8.69
2023-05-19T01:30:19.774Z,8.72
2023-05-19T01:31:19.802Z,8.71
2023-05-19T01:32:19.758Z,8.71
2023-05-19T01:33:19.754Z,8.71
2023-05-19T01:34:19.732Z,8.71
2023-05-19T01:35:19.703Z,8.71
2023-05-19T01:36:19.704Z,8.71
2023-05-19T01:37:19.717Z,8.69
2023-05-19T01:38:19.674Z,8.68
2023-05-19T01:39:19.690Z,8.63
2023-05-19T01:40:19.669Z,8.65
2023-05-19T01:41:19.657Z,8.63
2023-05-19T01:42:19.640Z,8.63
2023-05-19T01:43:19.677Z,8.63
2023-05-19T01:44:19.608Z,8.63
2023-05-19T01:45:19.599Z,8.62
2023-05-19T01:46:19.634Z,8.63
2023-05-19T01:47:19.582Z,8.63
2023-05-19T01:48:19.590Z,8.62
2023-05-19T01:49:19.581Z,8.58
2023-05-19T01:50:19.589Z,8.58
2023-05-19T01:51:19.542Z,8.55
2023-05-19T01:52:19.524Z,8.55
2023-05-19T01:53:19.511Z,8.55
2023-05-19T01:54:19.548Z,8.54
2023-05-19T01:55:19.519Z,8.55
2023-05-19T01:56:19.476Z,8.54
2023-05-19T01:57:19.493Z,8.53
2023-05-19T01:58:19.471Z,8.51
2023-05-19T01:59:19.441Z,8.51
2023-05-19T02:00:21.225Z,8.54
2023-05-19T02:01:19.511Z,8.53
2023-05-19T02:02:19.415Z,8.54
2023-05-19T02:03:19.403Z,8.54
2023-05-19T02:04:19.461Z,8.55
2023-05-19T02:05:19.376Z,8.55
2023-05-19T02:06:19.383Z,8.54
2023-05-19T02:07:19.357Z,8.55
2023-05-19T02:08:19.354Z,8.57
2023-05-19T02:09:19.331Z,8.54
2023-05-19T02:10:19.331Z,8.55
2023-05-19T02:11:19.338Z,8.54
2023-05-19T02:12:19.320Z,8.53
2023-05-19T02:13:19.284Z,8.53
2023-05-19T02:14:19.302Z,8.51
2023-05-19T02:15:19.287Z,8.51
2023-05-19T02:16:19.300Z,8.50
2023-05-19T02:17:19.262Z,8.50
2023-05-19T02:18:19.276Z,8.48
2023-05-19T02:19:19.273Z,8.47
2023-05-19T02:20:19.222Z,8.48
2023-05-19T02:21:19.203Z,8.45
2023-05-19T02:22:19.216Z,8.44
2023-05-19T02:23:19.175Z,8.44
2023-05-19T02:24:19.182Z,8.40
2023-05-19T02:25:19.186Z,8.39
2023-05-19T02:26:19.137Z,8.36
2023-05-19T02:27:19.182Z,8.36
2023-05-19T02:28:19.165Z,8.33
2023-05-19T02:29:19.112Z,8.33
2023-05-19T02:30:19.110Z,8.30
2023-05-19T02:31:19.124Z,8.29
2023-05-19T02:32:19.218Z,8.29
2023-05-19T02:33:19.076Z,8.29
2023-05-19T02:34:19.067Z,8.28
2023-05-19T02:35:19.059Z,8.26
2023-05-19T02:36:19.055Z,8.26
2023-05-19T02:37:19.027Z,8.26
2023-05-19T02:38:19.030Z,8.26
2023-05-19T02:39:19.025Z,8.29
2023-05-19T02:40:18.994Z,8.28
2023-05-19T02:41:18.981Z,8.32
2023-05-19T02:42:18.985Z,8.33
2023-05-19T02:43:18.988Z,8.32
2023-05-19T02:44:18.963Z,8.32
2023-05-19T02:45:18.968Z,8.36
2023-05-19T02:46:18.982Z,8.37
2023-05-19T02:47:18.918Z,8.37
2023-05-19T02:48:18.920Z,8.39
2023-05-19T02:49:18.898Z,8.40
2023-05-19T02:50:18.906Z,8.40
2023-05-19T02:51:18.884Z,8.40
2023-05-19T02:52:18.876Z,8.40
2023-05-19T02:53:18.859Z,8.40
2023-05-19T02:54:18.857Z,8.42
2023-05-19T02:55:18.853Z,8.45
2023-05-19T02:56:18.831Z,8.48
2023-05-19T02:57:18.810Z,8.50
2023-05-19T02:58:18.813Z,8.51
2023-05-19T02:59:18.805Z,8.54
2023-05-19T03:00:18.785Z,8.55
2023-05-19T03:01:18.790Z,8.55
2023-05-19T03:02:18.748Z,8.57
2023-05-19T03:03:19.771Z,8.57
2023-05-19T03:04:18.722Z,8.60
2023-05-19T03:05:18.712Z,8.62
2023-05-19T03:06:18.739Z,8.62
2023-05-19T03:07:18.692Z,8.63
2023-05-19T03:08:18.698Z,8.65
2023-05-19T03:09:18.685Z,8.65
2023-05-19T03:10:18.682Z,8.68
2023-05-19T03:11:18.647Z,8.68
2023-05-19T03:12:18.678Z,8.71
2023-05-19T03:13:18.648Z,8.71
2023-05-19T03:14:18.769Z,8.72
2023-05-19T03:15:18.618Z,8.72
2023-05-19T03:16:18.619Z,8.76
2023-05-19T03:17:18.589Z,8.79
2023-05-19T03:18:18.637Z,8.79
2023-05-19T03:19:18.659Z,8.83
2023-05-19T03:20:18.556Z,8.84
2023-05-19T03:21:18.546Z,8.86
2023-05-19T03:22:18.550Z,8.86
2023-05-19T03:23:18.537Z,8.87
2023-05-19T03:24:18.571Z,8.87
2023-05-19T03:25:18.506Z,8.87
2023-05-19T03:26:18.491Z,8.88
2023-05-19T03:27:18.539Z,8.88
2023-05-19T03:28:18.488Z,8.90
2023-05-19T03:29:18.461Z,8.90
2023-05-19T03:30:18.500Z,8.90
2023-05-19T03:31:18.502Z,8.91
2023-05-19T03:32:18.480Z,8.91
2023-05-19T03:33:18.655Z,8.94
2023-05-19T03:34:18.413Z,8.94
2023-05-19T03:35:18.396Z,8.93
2023-05-19T03:36:18.422Z,8.93
2023-05-19T03:37:18.408Z,8.93
2023-05-19T03:38:18.381Z,8.94
2023-05-19T03:39:18.382Z,8.94
2023-05-19T03:40:18.359Z,8.99
2023-05-19T03:41:18.335Z,8.99
2023-05-19T03:42:18.327Z,8.99
2023-05-19T03:43:18.315Z,9.01
2023-05-19T03:44:18.316Z,9.02
2023-05-19T03:45:18.295Z,9.02
2023-05-19T03:46:18.348Z,9.02
2023-05-19T03:47:18.279Z,9.04
2023-05-19T03:48:21.086Z,9.05
2023-05-19T03:49:18.234Z,9.09
2023-05-19T03:50:18.240Z,9.10
2023-05-19T03:51:18.214Z,9.12
2023-05-19T03:52:18.216Z,9.13
2023-05-19T03:53:18.224Z,9.15
2023-05-19T03:54:18.198Z,9.15
2023-05-19T03:55:18.197Z,9.16
2023-05-19T03:56:18.194Z,9.16
2023-05-19T03:57:18.151Z,9.18
2023-05-19T03:58:18.166Z,9.18
2023-05-19T03:59:18.133Z,9.21
2023-05-19T04:00:18.128Z,9.21
2023-05-19T04:01:18.122Z,9.23
2023-05-19T04:02:18.141Z,9.24
2023-05-19T04:03:18.225Z,9.25
2023-05-19T04:04:18.147Z,9.27
2023-05-19T04:05:18.089Z,9.28
2023-05-19T04:06:18.100Z,9.30
2023-05-19T04:07:18.039Z,9.31
2023-05-19T04:08:18.108Z,9.32
2023-05-19T04:09:18.030Z,9.34
2023-05-19T04:10:18.020Z,9.35
2023-05-19T04:11:18.022Z,9.39
2023-05-19T04:12:17.987Z,9.39
2023-05-19T04:13:18.015Z,9.40
2023-05-19T04:14:17.975Z,9.42
2023-05-19T04:15:17.946Z,9.46
2023-05-19T04:16:18.085Z,9.48
2023-05-19T04:17:17.940Z,9.49
2023-05-19T04:18:17.941Z,9.52
2023-05-19T04:19:18.076Z,9.52
2023-05-19T04:20:17.892Z,9.50
2023-05-19T04:21:17.914Z,9.53
2023-05-19T04:22:17.883Z,9.56
2023-05-19T04:23:17.881Z,9.58
2023-05-19T04:24:17.890Z,9.61
2023-05-19T04:25:17.846Z,9.64
2023-05-19T04:26:17.851Z,9.66
2023-05-19T04:27:17.865Z,9.68
2023-05-19T04:28:17.834Z,9.71
2023-05-19T04:29:17.818Z,9.73
2023-05-19T04:30:18.711Z,9.76
2023-05-19T04:31:17.795Z,9.79
2023-05-19T04:32:18.159Z,9.81
2023-05-19T04:33:17.774Z,9.83
2023-05-19T04:34:17.754Z,9.83
2023-05-19T04:35:17.753Z,9.83
2023-05-19T04:36:17.746Z,9.85
2023-05-19T04:37:17.721Z,9.88
2023-05-19T04:38:17.732Z,9.88
2023-05-19T04:39:17.700Z,9.88
2023-05-19T04:40:17.694Z,9.88
2023-05-19T04:41:17.673Z,9.89
2023-05-19T04:42:17.658Z,9.91
2023-05-19T04:43:17.659Z,9.89
2023-05-19T04:44:17.641Z,9.89
2023-05-19T04:45:17.629Z,9.91
2023-05-19T04:46:17.672Z,9.93
2023-05-19T04:47:17.613Z,9.93
2023-05-19T04:48:17.611Z,9.94
2023-05-19T04:49:17.630Z,9.93
2023-05-19T04:50:17.607Z,9.91
2023-05-19T04:51:17.564Z,9.91
2023-05-19T04:52:17.556Z,9.91
2023-05-19T04:53:17.550Z,9.93
2023-05-19T04:54:17.555Z,9.96
2023-05-19T04:55:17.527Z,9.96
2023-05-19T04:56:17.523Z,9.96
2023-05-19T04:57:17.495Z,9.97
2023-05-19T04:58:17.549Z,9.97
2023-05-19T04:59:17.472Z,9.97
2023-05-19T05:00:17.469Z,10.01
2023-05-19T05:01:17.505Z,10.00
2023-05-19T05:02:17.526Z,9.97
2023-05-19T05:03:17.571Z,10.00
2023-05-19T05:04:17.413Z,9.99
2023-05-19T05:05:17.404Z,10.00
2023-05-19T05:06:17.389Z,10.01
2023-05-19T05:07:17.416Z,10.01
2023-05-19T05:08:17.396Z,10.04
2023-05-19T05:09:17.362Z,10.04
2023-05-19T05:10:17.366Z,10.07
2023-05-19T05:11:17.337Z,10.06
2023-05-19T05:12:17.321Z,10.07
2023-05-19T05:13:17.347Z,10.06
2023-05-19T05:14:17.325Z,10.07
2023-05-19T05:15:17.310Z,10.06
2023-05-19T05:16:17.361Z,10.04
2023-05-19T05:17:17.289Z,10.06
2023-05-19T05:18:17.284Z,10.06
2023-05-19T05:19:17.321Z,10.04
2023-05-19T05:20:17.253Z,10.07
2023-05-19T05:21:17.226Z,10.10
2023-05-19T05:22:17.268Z,10.15
2023-05-19T05:23:17.221Z,10.18
2023-05-19T05:24:17.197Z,10.19
2023-05-19T05:25:17.201Z,10.22
2023-05-19T05:26:17.167Z,10.26
2023-05-19T05:27:17.157Z,10.32
2023-05-19T05:28:17.188Z,10.34
2023-05-19T05:29:17.154Z,10.37
2023-05-19T05:30:17.126Z,10.44
2023-05-19T05:31:17.110Z,10.47
2023-05-19T05:32:17.183Z,10.53
2023-05-19T05:33:17.207Z,10.55
2023-05-19T05:34:17.089Z,10.58
2023-05-19T05:35:17.068Z,10.56
2023-05-19T05:36:17.071Z,10.55
2023-05-19T05:37:17.068Z,10.55
2023-05-19T05:38:17.053Z,10.59
2023-05-19T05:39:17.022Z,10.63
2023-05-19T05:40:17.043Z,10.71
2023-05-19T05:41:17.012Z,10.74
2023-05-19T05:42:16.996Z,10.80
2023-05-19T05:43:17.004Z,10.83
2023-05-19T05:44:16.990Z,10.89
2023-05-19T05:45:16.970Z,10.91
2023-05-19T05:46:16.988Z,10.94
2023-05-19T05:47:16.934Z,10.94
2023-05-19T05:48:17.003Z,11.01
2023-05-19T05:49:16.914Z,11.06
2023-05-19T05:50:16.913Z,11.09
2023-05-19T05:51:16.942Z,11.13
2023-05-19T05:52:16.897Z,11.16
2023-05-19T05:53:16.886Z,11.17
2023-05-19T05:54:16.866Z,11.19
2023-05-19T05:55:16.873Z,11.21
2023-05-19T05:56:16.841Z,11.21
2023-05-19T05:57:16.834Z,11.25
2023-05-19T05:58:16.826Z,11.27
2023-05-19T05:59:16.833Z,11.27
2023-05-19T06:00:16.799Z,11.29
2023-05-19T06:01:16.788Z,11.29
2023-05-19T06:02:16.814Z,11.29
2023-05-19T06:03:16.975Z,11.32
2023-05-19T06:04:16.804Z,11.35
2023-05-19T06:05:16.835Z,11.36
2023-05-19T06:06:16.755Z,11.38
2023-05-19T06:07:16.773Z,11.41
2023-05-19T06:08:16.773Z,11.43
2023-05-19T06:09:16.723Z,11.44
2023-05-19T06:10:16.700Z,11.47
2023-05-19T06:11:16.679Z,11.52
2023-05-19T06:12:16.722Z,11.52
2023-05-19T06:13:16.680Z,11.54
2023-05-19T06:14:16.689Z,11.56
2023-05-19T06:15:16.642Z,11.59
2023-05-19T06:16:16.741Z,11.57
2023-05-19T06:17:16.605Z,11.64
2023-05-19T06:18:16.631Z,11.67
2023-05-19T06:19:16.691Z,11.71
2023-05-19T06:20:16.579Z,11.72
2023-05-19T06:21:16.566Z,11.78
2023-05-19T06:22:16.590Z,11.82
2023-05-19T06:23:16.556Z,11.85
2023-05-19T06:24:16.560Z,11.83
2023-05-19T06:25:16.524Z,11.85
2023-05-19T06:26:16.532Z,11.87
2023-05-19T06:27:16.522Z,11.87
2023-05-19T06:28:16.510Z,11.93
2023-05-19T06:29:16.502Z,11.96
2023-05-19T06:30:16.533Z,12.01
2023-05-19T06:31:16.551Z,12.04
2023-05-19T06:32:16.465Z,12.09
2023-05-19T06:33:16.478Z,12.13
2023-05-19T06:34:16.452Z,12.19
2023-05-19T06:35:16.416Z,12.21
2023-05-19T06:36:16.455Z,12.23
2023-05-19T06:37:16.406Z,12.27
2023-05-19T06:38:16.415Z,12.30
2023-05-19T06:39:16.406Z,12.33
2023-05-19T06:40:16.377Z,12.41
2023-05-19T06:41:16.376Z,12.46
2023-05-19T06:42:16.353Z,12.56
2023-05-19T06:43:16.349Z,12.63
2023-05-19T06:44:16.362Z,12.67
2023-05-19T06:45:16.344Z,12.71
2023-05-19T06:46:16.313Z,12.77
2023-05-19T06:47:16.459Z,12.79
2023-05-19T06:48:16.546Z,12.81
2023-05-19T06:49:16.308Z,12.84
2023-05-19T06:50:16.275Z,12.89
2023-05-19T06:51:16.241Z,12.97
2023-05-19T06:52:16.245Z,13.07
2023-05-19T06:53:16.238Z,13.17
2023-05-19T06:54:16.548Z,13.27
2023-05-19T06:55:17.174Z,13.32
2023-05-19T06:56:16.202Z,13.41
2023-05-19T06:57:16.182Z,13.52
2023-05-19T06:58:16.191Z,13.63
2023-05-19T06:59:16.181Z,13.73
2023-05-19T07:00:18.707Z,13.80
2023-05-19T07:01:17.152Z,13.88
2023-05-19T07:02:16.155Z,13.95
2023-05-19T07:03:16.179Z,14.04
2023-05-19T07:04:16.137Z,14.13
2023-05-19T07:05:16.095Z,14.21
2023-05-19T07:06:16.107Z,14.31
2023-05-19T07:07:16.069Z,14.35
2023-05-19T07:08:16.085Z,14.31
2023-05-19T07:09:16.063Z,14.35
2023-05-19T07:10:16.050Z,14.35
2023-05-19T07:11:16.032Z,14.39
2023-05-19T07:12:16.020Z,14.46
2023-05-19T07:13:15.991Z,14.50
2023-05-19T07:14:16.022Z,14.50
2023-05-19T07:15:16.651Z,14.52
2023-05-19T07:16:16.085Z,14.50
2023-05-19T07:17:15.976Z,14.54
2023-05-19T07:18:15.952Z,14.61
2023-05-19T07:19:15.993Z,14.67
2023-05-19T07:20:15.925Z,14.71
2023-05-19T07:21:15.919Z,14.78
2023-05-19T07:22:15.921Z,14.81
2023-05-19T07:23:17.389Z,14.81
2023-05-19T07:24:15.899Z,14.81
2023-05-19T07:25:15.896Z,14.72
2023-05-19T07:26:15.858Z,14.64
2023-05-19T07:27:15.853Z,14.60
2023-05-19T07:28:15.870Z,14.56
2023-05-19T07:29:15.837Z,14.56
2023-05-19T07:30:15.816Z,14.53
2023-05-19T07:31:15.810Z,14.49
2023-05-19T07:32:15.870Z,14.47
2023-05-19T07:33:15.867Z,14.49
2023-05-19T07:34:15.796Z,14.47
2023-05-19T07:35:15.796Z,14.49
2023-05-19T07:36:15.756Z,14.56
2023-05-19T07:37:15.793Z,14.64
2023-05-19T07:38:15.731Z,14.71
2023-05-19T07:39:15.808Z,14.74
2023-05-19T07:40:15.716Z,14.78
2023-05-19T07:41:36.735Z,14.87
2023-05-19T07:42:36.708Z,14.94
2023-05-19T07:43:15.673Z,15.03
2023-05-19T07:44:15.676Z,15.08
2023-05-19T07:45:15.666Z,15.11
2023-05-19T07:46:15.727Z,15.19
2023-05-19T07:47:15.623Z,15.21
2023-05-19T07:48:15.665Z,15.26
2023-05-19T07:49:15.641Z,15.31
2023-05-19T07:50:15.609Z,15.41
2023-05-19T07:51:15.587Z,15.43
2023-05-19T07:52:15.579Z,15.46
2023-05-19T07:53:15.562Z,15.52
2023-05-19T07:54:16.153Z,15.52
2023-05-19T07:55:15.546Z,15.51
2023-05-19T07:56:15.535Z,15.52
2023-05-19T07:57:15.528Z,15.56
2023-05-19T07:58:15.530Z,15.60
2023-05-19T07:59:15.521Z,15.66
2023-05-19T08:00:15.508Z,15.70
2023-05-19T08:01:15.467Z,15.68
2023-05-19T08:02:15.495Z,15.74
2023-05-19T08:03:15.599Z,15.78
2023-05-19T08:04:15.529Z,15.82
2023-05-19T08:05:15.442Z,15.79
2023-05-19T08:06:15.443Z,15.78
2023-05-19T08:07:15.408Z,15.84
2023-05-19T08:08:15.403Z,15.94
2023-05-19T08:09:15.411Z,16.00
2023-05-19T08:10:15.382Z,16.00
2023-05-19T08:11:15.374Z,16.07
2023-05-19T08:12:15.355Z,16.14
2023-05-19T08:13:15.344Z,16.22
2023-05-19T08:14:15.368Z,16.30
2023-05-19T08:15:15.339Z,16.26
2023-05-19T08:16:15.389Z,16.20
2023-05-19T08:17:15.326Z,16.11
2023-05-19T08:18:15.286Z,16.06
2023-05-19T08:19:15.340Z,16.09
2023-05-19T08:20:15.275Z,16.14
2023-05-19T08:21:15.254Z,16.18
2023-05-19T08:22:15.248Z,16.14
2023-05-19T08:23:15.234Z,16.18
2023-05-19T08:24:15.257Z,16.23
2023-05-19T08:25:15.223Z,16.18
2023-05-19T08:26:15.211Z,16.22
2023-05-19T08:27:15.191Z,16.30
2023-05-19T08:28:15.198Z,16.40
2023-05-19T08:29:15.216Z,16.52
2023-05-19T08:30:15.180Z,16.59
2023-05-19T08:31:15.173Z,16.71
2023-05-19T08:32:15.182Z,16.74
2023-05-19T08:33:15.182Z,16.81
2023-05-19T08:34:15.144Z,16.71
2023-05-19T08:35:15.130Z,16.71
2023-05-19T08:36:15.113Z,16.80
2023-05-19T08:37:15.103Z,16.89
2023-05-19T08:38:15.102Z,16.99
2023-05-19T08:39:15.083Z,17.14
2023-05-19T08:40:15.070Z,17.23
2023-05-19T08:41:15.559Z,17.28
2023-05-19T08:42:15.039Z,17.33
2023-05-19T08:43:15.026Z,17.30
2023-05-19T08:44:16.990Z,17.38
2023-05-19T08:45:15.007Z,17.47
2023-05-19T08:46:15.153Z,17.51
2023-05-19T08:47:15.037Z,17.64
2023-05-19T08:48:15.000Z,17.78
2023-05-19T08:49:14.992Z,17.89
2023-05-19T08:50:14.949Z,17.92
2023-05-19T08:51:14.943Z,17.95
2023-05-19T08:52:14.949Z,17.91
2023-05-19T08:53:28.888Z,17.89
2023-05-19T08:54:14.927Z,17.73
2023-05-19T08:55:14.908Z,17.55
2023-05-19T08:56:14.887Z,17.50
2023-05-19T08:57:14.867Z,17.41
2023-05-19T08:58:14.855Z,17.41
2023-05-19T08:59:14.860Z,17.32
2023-05-19T09:00:14.850Z,17.28
2023-05-19T09:01:14.868Z,17.29
2023-05-19T09:02:14.837Z,17.30
2023-05-19T09:03:22.809Z,17.28
2023-05-19T09:04:14.860Z,17.23
2023-05-19T09:05:14.871Z,17.22
2023-05-19T09:06:14.805Z,17.10
2023-05-19T09:07:14.766Z,17.10
2023-05-19T09:08:14.761Z,17.15
2023-05-19T09:09:14.748Z,17.15
2023-05-19T09:10:14.720Z,17.15
2023-05-19T09:11:14.707Z,17.15
2023-05-19T09:12:14.710Z,17.20
2023-05-19T09:13:14.698Z,17.17
2023-05-19T09:14:14.695Z,17.18
2023-05-19T09:15:14.664Z,17.20
2023-05-19T09:16:14.681Z,17.20
2023-05-19T09:17:14.677Z,17.17
2023-05-19T09:18:14.658Z,17.20
2023-05-19T09:19:14.697Z,17.26
2023-05-19T09:20:14.625Z,17.35
2023-05-19T09:21:14.593Z,17.36
2023-05-19T09:22:14.606Z,17.32
2023-05-19T09:23:14.580Z,17.26
2023-05-19T09:24:14.597Z,17.25
2023-05-19T09:25:14.553Z,17.30
2023-05-19T09:26:14.551Z,17.32
2023-05-19T09:27:14.528Z,17.36
2023-05-19T09:28:14.536Z,17.41
2023-05-19T09:29:14.547Z,17.53
2023-05-19T09:30:14.521Z,17.62
2023-05-19T09:31:14.497Z,17.70
2023-05-19T09:32:14.506Z,17.79
2023-05-19T09:33:14.503Z,17.88
2023-05-19T09:34:14.483Z,17.84
2023-05-19T09:35:14.439Z,17.79
2023-05-19T09:36:14.446Z,17.71
2023-05-19T09:37:14.419Z,17.70
2023-05-19T09:38:14.414Z,17.70
2023-05-19T09:39:14.415Z,17.79
2023-05-19T09:40:14.410Z,17.89
2023-05-19T09:41:14.387Z,17.94
2023-05-19T09:42:14.378Z,17.99
2023-05-19T09:43:14.357Z,18.06
2023-05-19T09:44:14.519Z,18.10
2023-05-19T09:45:14.328Z,18.18
2023-05-19T09:46:14.734Z,18.21
2023-05-19T09:47:14.308Z,18.28
2023-05-19T09:48:14.302Z,18.36
2023-05-19T09:49:14.307Z,18.46
2023-05-19T09:50:14.285Z,18.62
2023-05-19T09:51:14.268Z,18.74
2023-05-19T09:52:14.260Z,18.86
2023-05-19T09:53:14.260Z,18.95
2023-05-19T09:54:14.264Z,19.05
2023-05-19T09:55:14.219Z,19.20
2023-05-19T09:56:14.216Z,19.25
2023-05-19T09:57:14.199Z,19.29
2023-05-19T09:58:14.188Z,19.32
2023-05-19T09:59:14.199Z,19.39
2023-05-19T10:00:14.249Z,19.50
2023-05-19T10:01:14.169Z,19.40
2023-05-19T10:02:14.148Z,19.36
2023-05-19T10:03:14.175Z,19.36
2023-05-19T10:04:14.142Z,19.33
2023-05-19T10:05:14.208Z,19.32
2023-05-19T10:06:14.103Z,19.40
2023-05-19T10:07:14.090Z,19.53
2023-05-19T10:08:14.088Z,19.69
2023-05-19T10:09:14.106Z,19.75
2023-05-19T10:10:14.101Z,19.84
2023-05-19T10:11:14.040Z,19.75
2023-05-19T10:12:14.043Z,19.78
2023-05-19T10:13:14.040Z,19.73
2023-05-19T10:14:14.039Z,19.69
2023-05-19T10:15:14.011Z,19.73
2023-05-19T10:16:14.012Z,19.87
2023-05-19T10:17:13.984Z,19.93
2023-05-19T10:18:14.015Z,19.93
2023-05-19T10:19:14.098Z,19.95
2023-05-19T10:20:13.965Z,19.98
2023-05-19T10:21:13.938Z,20.05
2023-05-19T10:22:14.110Z,19.97
2023-05-19T10:23:13.934Z,20.05
2023-05-19T10:24:13.947Z,20.10
2023-05-19T10:25:13.904Z,20.18
2023-05-19T10:26:13.881Z,20.16
2023-05-19T10:27:13.908Z,20.28
2023-05-19T10:28:13.869Z,20.38
2023-05-19T10:29:13.890Z,20.43
2023-05-19T10:30:15.662Z,20.54
2023-05-19T10:31:13.850Z,20.58
2023-05-19T10:32:13.865Z,20.59
2023-05-19T10:33:13.869Z,20.64
2023-05-19T10:34:13.823Z,20.65
2023-05-19T10:35:13.776Z,20.62
2023-05-19T10:36:18.354Z,20.69
2023-05-19T10:37:13.812Z,20.66
2023-05-19T10:38:13.750Z,20.64
2023-05-19T10:39:13.761Z,20.42
2023-05-19T10:40:13.733Z,20.20
2023-05-19T10:41:13.764Z,20.03
2023-05-19T10:42:13.710Z,19.94
2023-05-19T10:43:13.735Z,19.79
2023-05-19T10:44:13.714Z,19.76
2023-05-19T10:45:13.729Z,19.58
2023-05-19T10:46:13.714Z,19.48
2023-05-19T10:47:13.765Z,19.38
2023-05-19T10:48:13.750Z,19.24
2023-05-19T10:49:13.658Z,19.17
2023-05-19T10:50:13.636Z,19.14
2023-05-19T10:51:14.587Z,19.18
2023-05-19T10:52:13.616Z,19.17
2023-05-19T10:53:13.604Z,19.20
2023-05-19T10:54:14.415Z,19.21
2023-05-19T10:55:13.576Z,19.25
2023-05-19T10:56:13.564Z,19.36
2023-05-19T10:57:13.553Z,19.42
2023-05-19T10:58:13.544Z,19.47
2023-05-19T10:59:13.541Z,19.54
2023-05-19T11:00:13.536Z,19.63
2023-05-19T11:01:13.510Z,19.70
2023-05-19T11:02:13.644Z,19.69
2023-05-19T11:03:13.626Z,19.69
2023-05-19T11:04:13.568Z,19.69
2023-05-19T11:05:13.461Z,19.70
2023-05-19T11:06:13.496Z,19.66
2023-05-19T11:07:13.990Z,19.65
2023-05-19T11:08:13.459Z,19.60
2023-05-19T11:09:13.468Z,19.63
2023-05-19T11:10:13.594Z,19.63
2023-05-19T11:11:13.398Z,19.65
2023-05-19T11:12:13.413Z,19.69
2023-05-19T11:13:14.906Z,19.75
2023-05-19T11:14:13.405Z,19.87
2023-05-19T11:15:13.385Z,19.91
2023-05-19T11:16:13.397Z,20.00
2023-05-19T11:17:13.346Z,20.09
2023-05-19T11:18:13.346Z,20.18
2023-05-19T11:19:13.336Z,20.23
2023-05-19T11:20:13.341Z,20.33
2023-05-19T11:21:13.306Z,20.42
2023-05-19T11:22:13.297Z,20.56
2023-05-19T11:23:13.303Z,20.79
2023-05-19T11:24:13.257Z,20.89
2023-05-19T11:25:13.268Z,20.99
2023-05-19T11:26:13.258Z,20.90
2023-05-19T11:27:13.228Z,20.86
2023-05-19T11:28:13.223Z,20.80
2023-05-19T11:29:13.212Z,20.72
2023-05-19T11:30:13.258Z,20.56
2023-05-19T11:31:13.206Z,20.39
2023-05-19T11:32:13.245Z,20.33
2023-05-19T11:33:13.227Z,20.21
2023-05-19T11:34:13.171Z,20.02
2023-05-19T11:35:13.155Z,19.90
2023-05-19T11:36:13.131Z,19.94
2023-05-19T11:37:13.145Z,20.03
2023-05-19T11:38:13.108Z,20.06
2023-05-19T11:39:13.111Z,20.20
2023-05-19T11:40:13.130Z,20.25
2023-05-19T11:41:13.067Z,20.27
2023-05-19T11:42:13.061Z,20.34
2023-05-19T11:43:13.044Z,20.50
2023-05-19T11:44:13.050Z,20.59
2023-05-19T11:45:13.048Z,20.62
2023-05-19T11:46:13.068Z,20.62
2023-05-19T11:47:13.009Z,20.81
2023-05-19T11:48:13.082Z,20.98
2023-05-19T11:49:12.990Z,21.01
2023-05-19T11:50:12.999Z,21.08
2023-05-19T11:51:12.957Z,21.11
2023-05-19T11:52:12.963Z,21.16
2023-05-19T11:53:12.948Z,21.16
2023-05-19T11:54:12.947Z,21.09
2023-05-19T11:55:12.936Z,21.30
2023-05-19T11:56:12.912Z,21.53
2023-05-19T11:57:12.919Z,21.75
2023-05-19T11:58:12.896Z,21.81
2023-05-19T11:59:12.880Z,21.90
2023-05-19T12:00:12.873Z,21.98
2023-05-19T12:01:12.849Z,22.04
2023-05-19T12:02:12.869Z,22.07
2023-05-19T12:03:12.965Z,22.13
2023-05-19T12:04:12.842Z,22.27
2023-05-19T12:05:12.874Z,22.27
2023-05-19T12:06:12.839Z,22.27
2023-05-19T12:07:12.795Z,22.23
2023-05-19T12:08:12.892Z,22.20
2023-05-19T12:09:12.774Z,22.10
2023-05-19T12:10:12.781Z,22.02
2023-05-19T12:11:12.756Z,21.66
2023-05-19T12:12:12.737Z,21.48
2023-05-19T12:13:12.760Z,21.38
2023-05-19T12:14:12.725Z,21.27
2023-05-19T12:15:12.714Z,21.16
2023-05-19T12:16:12.744Z,21.21
2023-05-19T12:17:12.673Z,21.34
2023-05-19T12:18:12.745Z,21.45
2023-05-19T12:19:12.713Z,21.53
2023-05-19T12:20:12.662Z,21.64
2023-05-19T12:21:12.633Z,21.67
2023-05-19T12:22:12.634Z,21.63
2023-05-19T12:23:12.621Z,21.63
2023-05-19T12:24:12.603Z,21.69
2023-05-19T12:25:12.655Z,21.69
2023-05-19T12:26:12.597Z,21.69
2023-05-19T12:27:12.574Z,21.61
2023-05-19T12:28:12.593Z,21.67
2023-05-19T12:29:12.545Z,21.59
2023-05-19T12:30:12.562Z,21.54
2023-05-19T12:31:12.645Z,21.64
2023-05-19T12:32:12.525Z,21.75
2023-05-19T12:33:19.073Z,21.82
2023-05-19T12:34:12.500Z,21.94
2023-05-19T12:35:12.503Z,21.85
2023-05-19T12:36:12.470Z,21.82
2023-05-19T12:37:12.486Z,21.64
2023-05-19T12:38:12.473Z,21.38
2023-05-19T12:39:12.441Z,21.36
2023-05-19T12:40:12.472Z,21.38
2023-05-19T12:41:12.434Z,21.61
2023-05-19T12:42:12.416Z,21.69
2023-05-19T12:43:12.411Z,21.67
2023-05-19T12:44:12.397Z,21.74
2023-05-19T12:45:12.408Z,21.83
2023-05-19T12:46:12.580Z,22.06
2023-05-19T12:47:12.371Z,22.23
2023-05-19T12:48:12.758Z,22.38
2023-05-19T12:49:12.365Z,22.53
2023-05-19T12:50:12.372Z,22.35
2023-05-19T12:51:12.314Z,22.12
2023-05-19T12:52:13.174Z,21.74
2023-05-19T12:53:12.321Z,21.50
2023-05-19T12:54:12.320Z,21.30
2023-05-19T12:55:12.464Z,21.20
2023-05-19T12:56:12.278Z,21.13
2023-05-19T12:57:12.269Z,20.98
2023-05-19T12:58:12.273Z,20.98
2023-05-19T12:59:12.291Z,20.91
2023-05-19T13:00:12.264Z,20.96
2023-05-19T13:01:12.436Z,20.96
2023-05-19T13:02:12.272Z,21.02